Agate, ND

1:57 AM CDT on July 29, 2015 (GMT -0500)
Cando | | Change Station
CLOSE
Current Station
Airport
Location: Cando,
Elevation: 1480 ft
Nearby Weather Stations
Active Advisory: Wind Advisory Active Notice: Public Information Statement

Elev 1480 ft 48.48 °N, 99.24 °W | Updated 22 minutes ago

Overcast
Overcast
59 °F
Feels Like 59 °F
N
33
Wind Variable Wind from West
Gusts 51 mph

Today
High -- | Low -- °F
--% Chance of Precip.
Yesterday
High -- | Low -- °F
Precip. -- in
6:07 AM 9:19 PM
Waxing Gibbous, 94% visible
Pressure 29.56 in
Visibility 10.0 miles
Clouds Overcast 1900 ft
Dew Point 54 °F
Humidity 82%
Rainfall 0.00 in
Snow Depth Not available.
UV 0 out of 12
Pollen 3.10 out of 12
Air Quality Not available.
Flu Activity Not available.
METAR K9D7 290635Z AUTO 28029G44KT 10SM OVC019 15/12 A2956 RMK AO2

More Conditions Fewer Conditions

Pressure 29.56 in
Visibility 10.0 miles
Clouds Overcast 1900 ft
Dew Point 54 °F
Humidity 82%
Rainfall 0.00 in
Snow Depth Not available.
UV 0 out of 12
Pollen 3.10 out of 12
Air Quality Not available.
Flu Activity Not available.
METAR K9D7 290635Z AUTO 28029G44KT 10SM OVC019 15/12 A2956 RMK AO2

More Conditions Fewer Conditions

10-Day Weather Forecast

×

Almanac

Astronomy

Jul. 29, 2015 Rise Set
Actual Time
Civil Twilight
Nautical Twilight
Astronomical Twilight
Moon
Length of Visible Light
Length of Day
Tomorrow will be .
, % of the Moon is Illuminated

Today's Extremes

State Highs State Lows

Community

WunderPhotos

Upload Photos

1,842,061 photos uploaded!

WunderBlogs® & News

Nearby

Air Quality

  Air Quality AQ Index Pollutant
Not available.

Snow Depth

Station Depth Elevation

Earthquake Activity

City Distance Mag. Time & Date
Minimum magnitude displayed is 2.5.

Coastal Water Temperatures

Place Temperature

Stations

Nearby Weather Stations

Station Location Temp. Windchill Dew Point Humidity Wind Precip. Elev Updated Type
                   
Wind Advisory
Statement as of 12:37 AM CDT on July 29, 2015

... Wind Advisory in effect until 7 PM CDT Wednesday...
... High Wind Warning is cancelled...

The National Weather Service in Bismarck has issued a Wind
Advisory... which is in effect until 7 PM CDT Wednesday. The High
Wind Warning has been cancelled.

* Timing... through early Wednesday evening.

* Winds... west winds sustained at 30 mph with gusts up to 45 mph.

* Impacts... travel will be hazardous.

Precautionary/preparedness actions...

A Wind Advisory means that sustained winds of 30 mph are
expected. Winds this strong can make driving difficult...
especially for high profile vehicles. Use extra caution.